createdAt,value
2023-04-09T00:00:43.831Z,101956.84
2023-04-09T00:03:11.636Z,101954.06
2023-04-09T00:05:40.782Z,101961.78
2023-04-09T00:08:08.626Z,101957.09
2023-04-09T00:10:36.329Z,101960.44
2023-04-09T00:13:03.955Z,101960.34
2023-04-09T00:15:32.941Z,101960.16
2023-04-09T00:18:00.702Z,101950.31
2023-04-09T00:20:28.331Z,101951.09
2023-04-09T00:22:56.501Z,101953.66
2023-04-09T00:25:24.168Z,101952.66
2023-04-09T00:27:51.763Z,101956.88
2023-04-09T00:30:19.343Z,101962.09
2023-04-09T00:32:48.739Z,101961.13
2023-04-09T00:35:17.502Z,101953.16
2023-04-09T00:37:45.390Z,101966.19
2023-04-09T00:40:13.052Z,101959.13
2023-04-09T00:42:41.588Z,101967.03
2023-04-09T00:45:10.046Z,101969.59
2023-04-09T00:47:37.830Z,101969.59
2023-04-09T00:50:07.743Z,101966.06
2023-04-09T00:52:35.456Z,101969.59
2023-04-09T00:55:05.962Z,101965.25
2023-04-09T00:57:33.592Z,101971.31
2023-04-09T01:00:01.247Z,101967.88
2023-04-09T01:02:30.974Z,101966.06
2023-04-09T01:04:59.204Z,101956.50
2023-04-09T01:07:40.720Z,101962.69
2023-04-09T01:10:18.345Z,101969.84
2023-04-09T01:12:55.673Z,101970.81
2023-04-09T01:15:27.385Z,101973.50
2023-04-09T01:18:04.034Z,101976.28
2023-04-09T01:20:36.636Z,101978.09
2023-04-09T01:23:17.459Z,101975.53
2023-04-09T01:25:52.683Z,101981.81
2023-04-09T01:28:24.859Z,101978.38
2023-04-09T01:30:57.266Z,101976.69
2023-04-09T01:33:26.290Z,101973.31
2023-04-09T01:35:54.961Z,101973.31
2023-04-09T01:38:24.096Z,101975.22
2023-04-09T01:40:53.768Z,101980.53
2023-04-09T01:43:23.422Z,101972.78
2023-04-09T01:45:52.478Z,101971.97
2023-04-09T01:48:21.665Z,101974.63
2023-04-09T01:50:50.322Z,101977.31
2023-04-09T01:53:18.107Z,101984.41
2023-04-09T01:55:45.891Z,101986.22
2023-04-09T01:58:13.514Z,101989.00
2023-04-09T02:00:48.395Z,101981.16
2023-04-09T02:03:19.726Z,101982.13
2023-04-09T02:05:52.212Z,101987.44
2023-04-09T02:08:23.064Z,101991.91
2023-04-09T02:10:55.313Z,101983.13
2023-04-09T02:13:25.863Z,101987.66
2023-04-09T02:15:57.643Z,101987.72
2023-04-09T02:18:27.318Z,101990.41
2023-04-09T02:20:55.488Z,101993.09
2023-04-09T02:23:23.481Z,101990.53
2023-04-09T02:25:53.080Z,101989.59
2023-04-09T02:28:20.779Z,101995.81
2023-04-09T02:30:48.446Z,101999.31
2023-04-09T02:33:17.682Z,102002.03
2023-04-09T02:35:45.278Z,101998.44
2023-04-09T02:38:13.847Z,102000.22
2023-04-09T02:40:42.122Z,101994.00
2023-04-09T02:43:10.026Z,102001.97
2023-04-09T02:45:37.871Z,102002.78
2023-04-09T02:48:05.747Z,101994.00
2023-04-09T02:50:37.402Z,101994.00
2023-04-09T02:53:05.066Z,101995.75
2023-04-09T02:55:32.957Z,101993.09
2023-04-09T02:58:00.616Z,101997.50
2023-04-09T03:00:28.292Z,101989.59
2023-04-09T03:02:56.588Z,101986.09
2023-04-09T03:05:24.469Z,101988.72
2023-04-09T03:07:53.375Z,101982.56
2023-04-09T03:10:20.964Z,101983.38
2023-04-09T03:12:48.561Z,101985.19
2023-04-09T03:15:16.995Z,101980.75
2023-04-09T03:17:44.747Z,101975.41
2023-04-09T03:20:12.427Z,101983.38
2023-04-09T03:22:40.948Z,101985.97
2023-04-09T03:25:21.911Z,101976.31
2023-04-09T03:27:53.269Z,101978.94
2023-04-09T03:30:30.576Z,101979.81
2023-04-09T03:32:59.543Z,101972.72
2023-04-09T03:35:28.963Z,101974.47
2023-04-09T03:37:59.937Z,101979.69
2023-04-09T03:40:29.046Z,101979.63
2023-04-09T03:42:57.205Z,101981.34
2023-04-09T03:45:24.852Z,101974.28
2023-04-09T03:47:57.475Z,101969.88
2023-04-09T03:50:26.440Z,101973.38
2023-04-09T03:52:56.747Z,101975.97
2023-04-09T03:55:25.266Z,101977.72
2023-04-09T03:57:54.856Z,101977.72
2023-04-09T04:00:28.179Z,101977.78
2023-04-09T04:03:16.510Z,101976.78
2023-04-09T04:06:03.335Z,101971.50
2023-04-09T04:08:39.895Z,101980.28
2023-04-09T04:11:07.799Z,101976.69
2023-04-09T04:13:36.959Z,101974.06
2023-04-09T04:16:10.081Z,101975.78
2023-04-09T04:18:39.869Z,101978.41
2023-04-09T04:21:13.852Z,101974.00
2023-04-09T04:23:45.293Z,101980.97
2023-04-09T04:26:18.820Z,101983.59
2023-04-09T04:28:48.458Z,101995.06
2023-04-09T04:31:27.351Z,101991.47
2023-04-09T04:33:58.874Z,101997.56
2023-04-09T04:36:27.189Z,101994.88
2023-04-09T04:38:54.926Z,101995.66
2023-04-09T04:41:37.819Z,101993.78
2023-04-09T04:44:21.058Z,102003.44
2023-04-09T04:46:52.930Z,102003.44
2023-04-09T04:49:20.515Z,102002.47
2023-04-09T04:51:49.091Z,102005.09
2023-04-09T04:54:17.344Z,102005.84
2023-04-09T04:56:52.420Z,102008.56
2023-04-09T04:59:33.908Z,102012.00
2023-04-09T05:02:06.464Z,102009.38
2023-04-09T05:04:42.941Z,102011.19
2023-04-09T05:07:13.922Z,102012.00
2023-04-09T05:09:49.103Z,102014.66
2023-04-09T05:12:17.969Z,102011.13
2023-04-09T05:14:50.796Z,102019.03
2023-04-09T05:17:18.694Z,102017.28
2023-04-09T05:19:52.128Z,102012.81
2023-04-09T05:22:23.264Z,102020.69
2023-04-09T05:24:51.436Z,102018.06
2023-04-09T05:27:19.432Z,102021.59
2023-04-09T05:29:51.157Z,102015.50
2023-04-09T05:32:18.838Z,102016.38
2023-04-09T05:34:47.264Z,102012.88
2023-04-09T05:37:16.139Z,102028.81
2023-04-09T05:39:49.095Z,102022.69
2023-04-09T05:42:17.901Z,102018.38
2023-04-09T05:44:58.021Z,102022.00
2023-04-09T05:47:25.755Z,102019.53
2023-04-09T05:50:02.036Z,102022.28
2023-04-09T05:52:30.059Z,102022.41
2023-04-09T05:54:58.548Z,102030.44
2023-04-09T05:57:41.737Z,102018.22
2023-04-09T06:00:11.879Z,102026.38
2023-04-09T06:02:46.139Z,102027.34
2023-04-09T06:05:14.211Z,102027.44
2023-04-09T06:07:41.892Z,102024.06
2023-04-09T06:10:10.375Z,102023.31
2023-04-09T06:12:38.031Z,102025.13
2023-04-09T06:15:06.570Z,102023.50
2023-04-09T06:17:35.575Z,102024.53
2023-04-09T06:20:03.861Z,102021.13
2023-04-09T06:22:31.449Z,102018.66
2023-04-09T06:24:59.069Z,102038.09
2023-04-09T06:27:26.678Z,102039.09
2023-04-09T06:29:54.360Z,102036.47
2023-04-09T06:32:22.051Z,102029.44
2023-04-09T06:34:51.001Z,102030.47
2023-04-09T06:37:18.568Z,102041.19
2023-04-09T06:40:00.004Z,102037.88
2023-04-09T06:42:28.843Z,102049.44
2023-04-09T06:45:10.620Z,102050.47
2023-04-09T06:47:38.244Z,102054.97
2023-04-09T06:50:08.766Z,102048.06
2023-04-09T06:52:36.350Z,102049.13
2023-04-09T06:55:04.083Z,102042.38
2023-04-09T06:57:31.695Z,102040.78
2023-04-09T06:59:59.326Z,102047.19
2023-04-09T07:02:27.759Z,102047.34
2023-04-09T07:04:55.628Z,102050.09
2023-04-09T07:07:25.843Z,102052.13
2023-04-09T07:09:54.039Z,102052.38
2023-04-09T07:12:27.761Z,102045.72
2023-04-09T07:14:58.762Z,102048.66
2023-04-09T07:17:26.394Z,102045.25
2023-04-09T07:19:54.397Z,102045.44
2023-04-09T07:22:23.660Z,102043.03
2023-04-09T07:24:54.378Z,102044.94
2023-04-09T07:27:22.323Z,102045.91
2023-04-09T07:29:50.089Z,102045.91
2023-04-09T07:32:18.021Z,102047.63
2023-04-09T07:34:45.734Z,102048.53
2023-04-09T07:37:13.445Z,102047.63
2023-04-09T07:39:42.633Z,102044.84
2023-04-09T07:42:10.316Z,102050.13
2023-04-09T07:44:38.769Z,102052.72
2023-04-09T07:47:08.748Z,102055.34
2023-04-09T07:49:37.899Z,102056.34
2023-04-09T07:52:06.472Z,102053.88
2023-04-09T07:54:35.242Z,102053.06
2023-04-09T07:57:04.477Z,102047.97
2023-04-09T07:59:32.121Z,102056.13
2023-04-09T08:01:59.962Z,102051.22
2023-04-09T08:04:28.727Z,102055.88
2023-04-09T08:06:56.523Z,102056.09
2023-04-09T08:09:24.140Z,102061.78
2023-04-09T08:11:51.766Z,102057.88
2023-04-09T08:14:21.262Z,102058.25
2023-04-09T08:16:50.122Z,102048.88
2023-04-09T08:19:19.128Z,102055.41
2023-04-09T08:21:48.949Z,102056.28
2023-04-09T08:24:16.881Z,102052.03
2023-04-09T08:26:44.832Z,102059.69
2023-04-09T08:29:13.989Z,102054.91
2023-04-09T08:31:43.217Z,102056.28
2023-04-09T08:34:10.931Z,102048.72
2023-04-09T08:36:38.547Z,102048.81
2023-04-09T08:39:06.168Z,102041.16
2023-04-09T08:41:34.137Z,102043.16
2023-04-09T08:44:02.011Z,102048.53
2023-04-09T08:46:29.744Z,102046.25
2023-04-09T08:48:59.062Z,102054.41
2023-04-09T08:51:28.652Z,102049.41
2023-04-09T08:53:58.369Z,102053.38
2023-04-09T08:56:27.101Z,102054.50
2023-04-09T08:58:56.187Z,102050.22
2023-04-09T09:03:14.662Z,102050.31
2023-04-09T09:05:45.764Z,102044.75
2023-04-09T09:08:25.246Z,102046.22
2023-04-09T09:10:55.156Z,102040.47
2023-04-09T09:13:26.328Z,102035.81
2023-04-09T09:15:56.484Z,102041.63
2023-04-09T09:18:40.440Z,102038.47
2023-04-09T09:21:12.031Z,102038.72
2023-04-09T09:23:40.291Z,102042.53
2023-04-09T09:26:13.916Z,102030.38
2023-04-09T09:28:42.423Z,102033.09
2023-04-09T09:31:10.994Z,102033.25
2023-04-09T09:33:40.825Z,102040.59
2023-04-09T09:36:09.425Z,102039.13
2023-04-09T09:38:53.119Z,102041.84
2023-04-09T09:41:22.383Z,102049.97
2023-04-09T09:43:50.492Z,102045.59
2023-04-09T09:46:18.878Z,102043.09
2023-04-09T09:48:47.958Z,102042.34
2023-04-09T09:51:17.379Z,102044.19
2023-04-09T09:53:49.109Z,102036.34
2023-04-09T09:56:22.519Z,102035.69
2023-04-09T09:58:54.306Z,102036.75
2023-04-09T10:01:24.877Z,102039.47
2023-04-09T10:03:54.636Z,102046.66
2023-04-09T10:06:25.212Z,102036.91
2023-04-09T10:08:53.643Z,102036.06
2023-04-09T10:11:21.424Z,102030.00
2023-04-09T10:13:53.897Z,102025.56
2023-04-09T10:16:23.211Z,102035.44
2023-04-09T10:18:51.629Z,102030.16
2023-04-09T10:21:32.163Z,102029.34
2023-04-09T10:24:00.195Z,102017.84
2023-04-09T10:26:30.755Z,102015.22
2023-04-09T10:29:08.933Z,102014.34
2023-04-09T10:31:52.908Z,102013.41
2023-04-09T10:34:23.466Z,102012.56
2023-04-09T10:36:55.510Z,102013.44
2023-04-09T10:39:27.592Z,102011.59
2023-04-09T10:41:56.106Z,102007.13
2023-04-09T10:44:26.386Z,102010.69
2023-04-09T10:46:56.187Z,101996.38
2023-04-09T10:49:26.489Z,101999.06
2023-04-09T10:52:02.431Z,102002.63
2023-04-09T10:54:46.116Z,102007.97
2023-04-09T10:57:19.194Z,102007.03
2023-04-09T10:59:48.432Z,101994.53
2023-04-09T11:02:46.171Z,101989.97
2023-04-09T11:05:22.771Z,101991.66
2023-04-09T11:07:58.414Z,101993.44
2023-04-09T11:10:26.807Z,101988.00
2023-04-09T11:12:54.786Z,101992.41
2023-04-09T11:15:22.859Z,101987.03
2023-04-09T11:17:51.201Z,101986.09
2023-04-09T11:20:22.177Z,101983.22
2023-04-09T11:22:52.279Z,101976.78
2023-04-09T11:25:21.037Z,101973.19
2023-04-09T11:27:48.909Z,101973.19
2023-04-09T11:30:16.592Z,101970.50
2023-04-09T11:32:44.516Z,101969.66
2023-04-09T11:35:14.202Z,101957.06
2023-04-09T11:37:42.998Z,101963.03
2023-04-09T11:40:17.880Z,101964.91
2023-04-09T11:42:46.090Z,101960.44
2023-04-09T11:45:14.409Z,101958.47
2023-04-09T11:47:42.685Z,101948.22
2023-04-09T11:50:11.774Z,101950.53
2023-04-09T11:52:40.214Z,101951.16
2023-04-09T11:55:09.034Z,101948.28
2023-04-09T11:57:47.155Z,101949.66
2023-04-09T12:00:17.012Z,101950.28
2023-04-09T12:02:47.331Z,101945.75
2023-04-09T12:05:23.931Z,101951.81
2023-04-09T12:07:56.312Z,101950.91
2023-04-09T12:10:29.973Z,101951.94
2023-04-09T12:13:05.380Z,101950.94
2023-04-09T12:15:34.719Z,101946.56
2023-04-09T12:18:02.568Z,101947.59
2023-04-09T12:20:32.522Z,101944.75
2023-04-09T12:23:03.455Z,101948.44
2023-04-09T12:25:32.007Z,101945.72
2023-04-09T12:27:59.859Z,101939.50
2023-04-09T12:30:28.957Z,101945.66
2023-04-09T12:32:57.319Z,101942.25
2023-04-09T12:35:25.199Z,101937.69
2023-04-09T12:37:52.870Z,101933.88
2023-04-09T12:40:22.539Z,101929.00
2023-04-09T12:42:51.779Z,101934.56
2023-04-09T12:45:20.923Z,101934.38
2023-04-09T12:47:51.184Z,101924.28
2023-04-09T12:50:18.851Z,101922.97
2023-04-09T12:52:46.921Z,101927.28
2023-04-09T12:55:15.566Z,101922.72
2023-04-09T12:57:45.475Z,101924.47
2023-04-09T13:00:14.325Z,101915.16
2023-04-09T13:02:42.363Z,101917.91
2023-04-09T13:05:12.892Z,101909.56
2023-04-09T13:07:42.913Z,101911.66
2023-04-09T13:10:11.382Z,101907.34
2023-04-09T13:12:39.032Z,101905.78
2023-04-09T13:15:07.838Z,101903.63
2023-04-09T13:17:35.652Z,101896.81
2023-04-09T13:20:03.759Z,101894.38
2023-04-09T13:22:32.741Z,101882.66
2023-04-09T13:25:00.336Z,101885.41
2023-04-09T13:27:27.980Z,101889.13
2023-04-09T13:29:55.547Z,101872.97
2023-04-09T13:32:24.218Z,101876.41
2023-04-09T13:34:53.686Z,101878.13
2023-04-09T13:37:21.488Z,101872.00
2023-04-09T13:39:50.546Z,101873.81
2023-04-09T13:42:18.412Z,101868.53
2023-04-09T13:44:46.212Z,101868.06
2023-04-09T13:47:15.038Z,101862.47
2023-04-09T13:49:43.390Z,101859.66
2023-04-09T13:52:11.650Z,101865.19
2023-04-09T13:54:39.336Z,101860.84
2023-04-09T13:57:08.266Z,101856.09
2023-04-09T13:59:36.101Z,101856.88
2023-04-09T14:02:03.781Z,101847.97
2023-04-09T14:04:31.520Z,101852.38
2023-04-09T14:06:59.208Z,101840.56
2023-04-09T14:09:26.828Z,101840.34
2023-04-09T14:11:56.169Z,101844.91
2023-04-09T14:14:25.271Z,101845.16
2023-04-09T14:16:53.405Z,101847.09
2023-04-09T14:19:21.346Z,101846.97
2023-04-09T14:21:49.374Z,101840.63
2023-04-09T14:24:17.057Z,101829.63
2023-04-09T14:26:45.042Z,101835.22
2023-04-09T14:29:12.666Z,101838.81
2023-04-09T14:31:42.810Z,101832.13
2023-04-09T14:34:10.542Z,101836.44
2023-04-09T14:36:38.165Z,101834.69
2023-04-09T14:39:05.969Z,101834.03
2023-04-09T14:41:36.582Z,101833.53
2023-04-09T14:44:04.373Z,101830.09
2023-04-09T14:46:32.021Z,101826.00
2023-04-09T14:49:00.985Z,101825.69
2023-04-09T14:51:30.444Z,101825.91
2023-04-09T14:53:58.443Z,101826.75
2023-04-09T14:56:26.091Z,101825.91
2023-04-09T14:58:54.144Z,101826.13
2023-04-09T15:01:22.596Z,101822.94
2023-04-09T15:03:50.684Z,101824.81
2023-04-09T15:06:19.963Z,101817.75
2023-04-09T15:08:47.604Z,101816.19
2023-04-09T15:11:17.017Z,101816.66
2023-04-09T15:13:44.893Z,101820.47
2023-04-09T15:16:12.726Z,101821.47
2023-04-09T15:18:40.445Z,101818.97
2023-04-09T15:21:08.238Z,101822.75
2023-04-09T15:23:37.155Z,101812.78
2023-04-09T15:26:05.003Z,101817.13
2023-04-09T15:28:32.616Z,101821.03
2023-04-09T15:31:00.288Z,101819.56
2023-04-09T15:33:28.035Z,101813.41
2023-04-09T15:35:55.810Z,101816.06
2023-04-09T15:38:25.136Z,101824.38
2023-04-09T15:40:56.030Z,101820.16
2023-04-09T15:43:23.993Z,101820.50
2023-04-09T15:45:52.128Z,101824.31
2023-04-09T15:48:20.196Z,101822.03
2023-04-09T15:50:47.782Z,101822.38
2023-04-09T15:53:15.945Z,101820.75
2023-04-09T15:55:43.523Z,101820.88
2023-04-09T15:58:12.632Z,101814.69
2023-04-09T16:00:40.584Z,101812.88
2023-04-09T16:03:08.200Z,101821.97
2023-04-09T16:05:36.051Z,101813.13
2023-04-09T16:08:03.614Z,101808.72
2023-04-09T16:10:31.964Z,101813.25
2023-04-09T16:12:59.623Z,101811.50
2023-04-09T16:15:28.932Z,101804.47
2023-04-09T16:17:56.670Z,101803.75
2023-04-09T16:20:24.504Z,101809.34
2023-04-09T16:22:52.147Z,101818.38
2023-04-09T16:25:19.755Z,101806.88
2023-04-09T16:27:47.314Z,101800.72
2023-04-09T16:30:14.908Z,101802.69
2023-04-09T16:32:43.897Z,101802.81
2023-04-09T16:35:11.489Z,101802.91
2023-04-09T16:37:39.418Z,101797.63
2023-04-09T16:40:08.415Z,101794.13
2023-04-09T16:42:36.699Z,101796.88
2023-04-09T16:45:04.651Z,101792.56
2023-04-09T16:47:32.752Z,101798.88
2023-04-09T16:50:02.939Z,101807.91
2023-04-09T16:52:30.675Z,101799.03
2023-04-09T16:54:58.913Z,101792.91
2023-04-09T16:57:26.493Z,101789.44
2023-04-09T16:59:54.177Z,101787.72
2023-04-09T17:02:23.868Z,101788.66
2023-04-09T17:04:51.863Z,101788.69
2023-04-09T17:07:21.826Z,101785.19
2023-04-09T17:09:49.458Z,101787.00
2023-04-09T17:12:18.235Z,101789.72
2023-04-09T17:14:45.975Z,101784.41
2023-04-09T17:17:13.577Z,101790.63
2023-04-09T17:19:42.805Z,101790.63
2023-04-09T17:22:10.713Z,101786.19
2023-04-09T17:24:39.769Z,101788.00
2023-04-09T17:27:07.371Z,101797.78
2023-04-09T17:29:35.191Z,101797.78
2023-04-09T17:32:02.777Z,101792.44
2023-04-09T17:34:30.405Z,101795.09
2023-04-09T17:36:59.912Z,101797.78
2023-04-09T17:39:29.240Z,101804.00
2023-04-09T17:42:00.484Z,101806.63
2023-04-09T17:44:28.133Z,101796.84
2023-04-09T17:46:55.729Z,101798.56
2023-04-09T17:49:23.312Z,101797.66
2023-04-09T17:51:51.283Z,101788.72
2023-04-09T17:54:18.915Z,101779.78
2023-04-09T17:56:46.950Z,101790.41
2023-04-09T17:59:15.910Z,101788.59
2023-04-09T18:01:43.610Z,101780.56
2023-04-09T18:04:11.848Z,101791.16
2023-04-09T18:06:39.568Z,101798.16
2023-04-09T18:09:07.581Z,101793.66
2023-04-09T18:11:35.187Z,101802.47
2023-04-09T18:14:07.778Z,101799.72
2023-04-09T18:16:38.113Z,101803.19
2023-04-09T18:19:06.087Z,101800.41
2023-04-09T18:21:36.319Z,101805.56
2023-04-09T18:24:04.672Z,101803.69
2023-04-09T18:26:33.738Z,101808.91
2023-04-09T18:29:01.835Z,101805.25
2023-04-09T18:31:29.560Z,101794.47
2023-04-09T18:33:58.502Z,101798.78
2023-04-09T18:36:28.203Z,101795.97
2023-04-09T18:38:57.831Z,101805.56
2023-04-09T18:41:26.138Z,101808.13
2023-04-09T18:43:54.230Z,101801.78
2023-04-09T18:46:22.827Z,101807.84
2023-04-09T18:48:50.504Z,101815.72
2023-04-09T18:51:20.850Z,101813.81
2023-04-09T18:53:52.864Z,101822.56
2023-04-09T18:56:21.080Z,101820.66
2023-04-09T18:58:48.763Z,101816.97
2023-04-09T19:01:17.499Z,101821.22
2023-04-09T19:03:45.959Z,101814.00
2023-04-09T19:06:14.622Z,101822.72
2023-04-09T19:08:43.679Z,101828.75
2023-04-09T19:11:12.553Z,101827.75
2023-04-09T19:13:40.455Z,101829.34
2023-04-09T19:16:09.041Z,101826.56
2023-04-09T19:18:38.572Z,101826.44
2023-04-09T19:21:07.994Z,101828.97
2023-04-09T19:23:35.642Z,101822.63
2023-04-09T19:26:05.468Z,101824.22
2023-04-09T19:28:33.162Z,101835.56
2023-04-09T19:31:02.851Z,101837.19
2023-04-09T19:33:31.728Z,101827.25
2023-04-09T19:35:59.378Z,101836.78
2023-04-09T19:38:27.143Z,101835.75
2023-04-09T19:40:54.727Z,101836.53
2023-04-09T19:43:23.779Z,101831.94
2023-04-09T19:45:51.374Z,101842.38
2023-04-09T19:48:19.003Z,101841.38
2023-04-09T19:50:48.329Z,101844.75
2023-04-09T19:53:16.387Z,101842.88
2023-04-09T19:55:44.642Z,101836.56
2023-04-09T19:58:12.255Z,101836.41
2023-04-09T20:00:41.244Z,101844.22
2023-04-09T20:03:09.288Z,101841.41
2023-04-09T20:05:37.114Z,101841.22
2023-04-09T20:08:04.999Z,101842.91
2023-04-09T20:10:32.708Z,101846.31
2023-04-09T20:13:01.594Z,101839.13
2023-04-09T20:15:29.411Z,101843.44
2023-04-09T20:17:58.348Z,101838.03
2023-04-09T20:20:26.203Z,101839.69
2023-04-09T20:22:56.312Z,101835.19
2023-04-09T20:25:24.594Z,101839.47
2023-04-09T20:27:53.974Z,101839.38
2023-04-09T20:30:22.550Z,101834.81
2023-04-09T20:32:50.262Z,101841.75
2023-04-09T20:35:19.389Z,101833.69
2023-04-09T20:37:48.389Z,101825.59
2023-04-09T20:40:16.419Z,101829.00
2023-04-09T20:42:44.786Z,101826.25
2023-04-09T20:45:12.692Z,101828.81
2023-04-09T20:47:40.936Z,101822.56
2023-04-09T20:50:09.334Z,101822.50
2023-04-09T20:52:38.387Z,101823.34
2023-04-09T20:55:07.393Z,101812.72
2023-04-09T20:57:34.976Z,101820.66
2023-04-09T21:00:02.940Z,101820.63
2023-04-09T21:02:31.094Z,101814.44
2023-04-09T21:05:05.541Z,101810.91
2023-04-09T21:07:44.219Z,101809.09
2023-04-09T21:10:11.911Z,101804.69
2023-04-09T21:12:39.588Z,101809.97
2023-04-09T21:15:08.265Z,101809.94
2023-04-09T21:17:36.050Z,101806.38
2023-04-09T21:20:04.486Z,101804.59
2023-04-09T21:22:32.139Z,101810.69
2023-04-09T21:25:01.087Z,101813.31
2023-04-09T21:27:28.662Z,101812.41
2023-04-09T21:29:56.289Z,101825.53
2023-04-09T21:32:24.985Z,101816.66
2023-04-09T21:34:52.694Z,101818.28
2023-04-09T21:37:20.359Z,101819.94
2023-04-09T21:39:48.886Z,101814.56
2023-04-09T21:42:17.865Z,101825.00
2023-04-09T21:44:45.453Z,101825.72
2023-04-09T21:47:13.092Z,101820.31
2023-04-09T21:49:40.828Z,101826.34
2023-04-09T21:52:14.169Z,101834.19
2023-04-09T21:54:42.278Z,101830.50
2023-04-09T21:57:10.025Z,101844.50
2023-04-09T21:59:41.088Z,101838.19
2023-04-09T22:02:10.031Z,101823.94
2023-04-09T22:04:37.963Z,101827.28
2023-04-09T22:07:05.673Z,101832.44
2023-04-09T22:09:33.253Z,101830.50
2023-04-09T22:12:02.618Z,101823.31
2023-04-09T22:14:30.616Z,101827.56
2023-04-09T22:17:01.666Z,101825.59
2023-04-09T22:19:31.301Z,101832.47
2023-04-09T22:21:59.603Z,101827.03
2023-04-09T22:24:29.093Z,101828.63
2023-04-09T22:26:58.634Z,101832.03
2023-04-09T22:29:26.599Z,101840.66
2023-04-09T22:31:54.326Z,101831.69
2023-04-09T22:34:23.336Z,101828.00
2023-04-09T22:36:51.067Z,101836.69
2023-04-09T22:39:18.814Z,101836.53
2023-04-09T22:41:46.418Z,101843.38
2023-04-09T22:44:14.030Z,101850.31
2023-04-09T22:46:42.132Z,101848.41
2023-04-09T22:49:09.839Z,101843.78
2023-04-09T22:51:41.380Z,101844.53
2023-04-09T22:54:09.484Z,101840.78
2023-04-09T22:56:37.635Z,101844.09
2023-04-09T22:59:06.079Z,101847.41
2023-04-09T23:01:33.996Z,101850.72
2023-04-09T23:04:01.862Z,101846.19
2023-04-09T23:06:30.921Z,101846.91
2023-04-09T23:09:00.401Z,101837.13
2023-04-09T23:11:28.229Z,101843.13
2023-04-09T23:13:55.960Z,101847.38
2023-04-09T23:16:23.837Z,101842.84
2023-04-09T23:18:51.570Z,101837.38
2023-04-09T23:21:19.261Z,101843.41
2023-04-09T23:23:46.821Z,101841.50
2023-04-09T23:26:15.745Z,101844.91
2023-04-09T23:28:43.323Z,101848.28
2023-04-09T23:31:11.422Z,101838.41
2023-04-09T23:33:39.053Z,101841.81
2023-04-09T23:36:07.368Z,101843.44
2023-04-09T23:38:34.974Z,101847.72
2023-04-09T23:41:02.590Z,101844.03
2023-04-09T23:43:31.500Z,101842.13
2023-04-09T23:45:59.123Z,101839.31
2023-04-09T23:48:26.687Z,101840.94
2023-04-09T23:50:54.264Z,101836.47
2023-04-09T23:53:21.843Z,101839.88
2023-04-09T23:55:50.149Z,101833.59
2023-04-09T23:58:18.844Z,101831.75
